Time;durP1;ratioP1;P1;durP2;ratioP2;P2;SDS_P1;SDS_P2;PMS_P1;PMS_P2;Temp;Humidity;BMP_temperature;BMP_pressure;BME280_temperature;BME280_humidity;BME280_pressure;Samples;Min_cycle;Max_cycle;Signal;HPM_P1;HPM_P2
2022/02/18 00:00:22;;;;;;;11.40;2.30;;;;;;;;;;6280830;22;20155;-83
2022/02/18 00:02:48;;;;;;;12.27;2.97;;;;;;;;;;6281041;22;20148;-83
2022/02/18 00:05:14;;;;;;;10.17;2.27;;;;;;;;;;6282176;22;20239;-83
2022/02/18 00:07:40;;;;;;;14.23;3.00;;;;;;;;;;6277761;22;20152;-82
2022/02/18 00:10:06;;;;;;;12.90;2.93;;;;;;;;;;6279433;22;20160;-82
2022/02/18 00:12:32;;;;;;;10.03;3.07;;;;;;;;;;6281197;22;20664;-83
2022/02/18 00:14:59;;;;;;;11.67;2.83;;;;;;;;;;6280657;22;20172;-81
2022/02/18 00:17:25;;;;;;;10.23;2.53;;;;;;;;;;6281337;22;20149;-83
2022/02/18 00:19:51;;;;;;;13.27;2.50;;;;;;;;;;6281573;22;20528;-83
2022/02/18 00:22:17;;;;;;;14.87;2.87;;;;;;;;;;6281025;22;20157;-82
2022/02/18 00:24:43;;;;;;;11.07;2.87;;;;;;;;;;6279799;22;20229;-80
2022/02/18 00:27:10;;;;;;;13.97;3.17;;;;;;;;;;6279442;22;20233;-83
2022/02/18 00:29:36;;;;;;;16.43;3.77;;;;;;;;;;6281891;22;20179;-83
2022/02/18 00:32:07;;;;;;;11.90;2.93;;;;;;;;;;6280843;22;20178;-83
2022/02/18 00:34:33;;;;;;;12.40;2.77;;;;;;;;;;6280351;22;20203;-84
2022/02/18 00:36:59;;;;;;;12.70;2.63;;;;;;;;;;6280371;22;20137;-83
2022/02/18 00:39:25;;;;;;;18.53;3.53;;;;;;;;;;6280909;22;20165;-83
2022/02/18 00:41:52;;;;;;;9.70;2.53;;;;;;;;;;6280063;22;20145;-83
2022/02/18 00:44:18;;;;;;;17.20;3.03;;;;;;;;;;6279966;22;20145;-83
2022/02/18 00:46:45;;;;;;;19.40;3.60;;;;;;;;;;6278978;22;20163;-83
2022/02/18 00:49:11;;;;;;;15.10;2.63;;;;;;;;;;6279748;22;20223;-83
2022/02/18 00:51:37;;;;;;;10.27;3.03;;;;;;;;;;6281234;22;20152;-80
2022/02/18 00:54:03;;;;;;;10.20;2.67;;;;;;;;;;6286756;22;20157;-82
2022/02/18 00:56:29;;;;;;;12.23;2.90;;;;;;;;;;6294811;22;20236;-83
2022/02/18 00:58:55;;;;;;;8.90;2.60;;;;;;;;;;6289204;22;20168;-83
2022/02/18 01:01:21;;;;;;;15.30;2.77;;;;;;;;;;6287425;22;20141;-83
2022/02/18 01:03:47;;;;;;;12.57;2.97;;;;;;;;;;6282131;22;20150;-83
2022/02/18 01:06:13;;;;;;;17.13;2.87;;;;;;;;;;6282996;22;20206;-83
2022/02/18 01:08:39;;;;;;;14.27;3.23;;;;;;;;;;6282968;22;20242;-84
2022/02/18 01:11:05;;;;;;;9.97;2.73;;;;;;;;;;6281143;22;20152;-83
2022/02/18 01:13:31;;;;;;;16.97;3.80;;;;;;;;;;6281134;22;20176;-84
2022/02/18 01:15:57;;;;;;;14.27;2.60;;;;;;;;;;6284174;22;20180;-84
2022/02/18 01:18:23;;;;;;;12.40;2.80;;;;;;;;;;6284022;22;20403;-83
2022/02/18 01:20:49;;;;;;;16.20;2.90;;;;;;;;;;6283875;22;20174;-83
2022/02/18 01:23:15;;;;;;;13.63;2.20;;;;;;;;;;6283505;22;20472;-81
2022/02/18 01:25:41;;;;;;;13.17;2.83;;;;;;;;;;6283478;22;20160;-83
2022/02/18 01:28:07;;;;;;;12.17;2.60;;;;;;;;;;6280866;22;20210;-84
2022/02/18 01:30:33;;;;;;;14.57;3.07;;;;;;;;;;6283710;22;20153;-82
2022/02/18 01:32:59;;;;;;;14.77;3.20;;;;;;;;;;6283607;22;20202;-84
2022/02/18 01:35:25;;;;;;;11.20;2.37;;;;;;;;;;6280229;22;20170;-82
2022/02/18 01:37:53;;;;;;;12.57;2.60;;;;;;;;;;6282420;22;20173;-83
2022/02/18 01:40:20;;;;;;;16.30;2.90;;;;;;;;;;6283683;22;20141;-81
2022/02/18 01:42:46;;;;;;;10.83;3.03;;;;;;;;;;6281377;22;20148;-84
2022/02/18 01:45:12;;;;;;;11.33;2.90;;;;;;;;;;6282840;22;20145;-83
2022/02/18 01:47:39;;;;;;;11.97;2.30;;;;;;;;;;6282834;22;20172;-83
2022/02/18 01:50:05;;;;;;;11.60;2.80;;;;;;;;;;6281770;22;20156;-84
2022/02/18 01:52:40;;;;;;;16.07;2.23;;;;;;;;;;6281121;22;20145;-84
2022/02/18 01:55:10;;;;;;;17.27;2.80;;;;;;;;;;6282878;22;20168;-83
2022/02/18 01:57:56;;;;;;;11.77;2.40;;;;;;;;;;6283013;22;20598;-83
2022/02/18 02:00:23;;;;;;;12.33;3.07;;;;;;;;;;6281838;22;20149;-83
2022/02/18 02:02:50;;;;;;;16.77;2.57;;;;;;;;;;6283659;22;20155;-83
2022/02/18 02:05:16;;;;;;;9.43;2.43;;;;;;;;;;6282502;22;20151;-84
2022/02/18 02:07:43;;;;;;;11.10;3.03;;;;;;;;;;6283163;22;20629;-83
2022/02/18 02:10:11;;;;;;;12.40;2.87;;;;;;;;;;6281499;22;20185;-82
2022/02/18 02:12:42;;;;;;;14.40;3.13;;;;;;;;;;6282274;22;20229;-84
2022/02/18 02:15:09;;;;;;;11.23;2.53;;;;;;;;;;6283124;22;20181;-83
2022/02/18 02:17:35;;;;;;;11.50;2.30;;;;;;;;;;6284640;22;20141;-82
2022/02/18 02:20:02;;;;;;;10.33;2.30;;;;;;;;;;6284290;22;20150;-83
2022/02/18 02:22:28;;;;;;;9.93;2.80;;;;;;;;;;6282817;22;20160;-87
2022/02/18 02:24:55;;;;;;;12.60;2.90;;;;;;;;;;6276397;22;20495;-83
2022/02/18 02:27:22;;;;;;;8.83;2.40;;;;;;;;;;6278673;22;20176;-81
2022/02/18 02:30:00;;;;;;;14.77;2.53;;;;;;;;;;6279362;22;20180;-83
2022/02/18 02:32:29;;;;;;;15.70;3.63;;;;;;;;;;6279536;22;20144;-85
2022/02/18 02:34:55;;;;;;;8.80;2.80;;;;;;;;;;6281057;22;20177;-84
2022/02/18 02:37:22;;;;;;;14.17;2.33;;;;;;;;;;6278248;22;20156;-83
2022/02/18 02:39:48;;;;;;;11.60;2.90;;;;;;;;;;6278158;22;20287;-84
2022/02/18 02:42:14;;;;;;;14.30;2.57;;;;;;;;;;6280176;22;20150;-83
2022/02/18 02:44:40;;;;;;;8.90;2.53;;;;;;;;;;6280284;22;20161;-84
2022/02/18 02:47:06;;;;;;;11.33;2.50;;;;;;;;;;6281132;22;20486;-85
2022/02/18 02:49:33;;;;;;;11.33;2.43;;;;;;;;;;6279032;22;20559;-84
2022/02/18 02:51:59;;;;;;;15.07;2.77;;;;;;;;;;6278844;22;20179;-83
2022/02/18 02:54:25;;;;;;;13.57;2.90;;;;;;;;;;6281474;22;20696;-83
2022/02/18 02:56:56;;;;;;;14.47;2.93;;;;;;;;;;6282138;22;20144;-84
2022/02/18 02:59:23;;;;;;;11.97;2.77;;;;;;;;;;6281574;22;20173;-83
2022/02/18 03:01:49;;;;;;;13.03;3.43;;;;;;;;;;6280697;22;20148;-83
2022/02/18 03:04:15;;;;;;;17.17;3.47;;;;;;;;;;6282384;22;20624;-84
2022/02/18 03:06:41;;;;;;;14.23;2.93;;;;;;;;;;6282854;22;20156;-82
2022/02/18 03:09:08;;;;;;;14.80;2.97;;;;;;;;;;6282105;22;20173;-82
2022/02/18 03:11:34;;;;;;;17.33;3.27;;;;;;;;;;6280087;22;20163;-82
2022/02/18 03:14:00;;;;;;;10.63;3.07;;;;;;;;;;6280617;22;20152;-83
2022/02/18 03:16:26;;;;;;;13.30;2.57;;;;;;;;;;6281440;22;20146;-82
2022/02/18 03:18:52;;;;;;;13.03;3.13;;;;;;;;;;6281853;22;20187;-83
2022/02/18 03:21:19;;;;;;;11.37;3.40;;;;;;;;;;6281959;22;20224;-82
2022/02/18 03:23:48;;;;;;;16.17;3.10;;;;;;;;;;6281354;22;20224;-82
2022/02/18 03:26:15;;;;;;;13.83;3.40;;;;;;;;;;6281844;22;20157;-82
2022/02/18 03:28:41;;;;;;;11.63;2.70;;;;;;;;;;6279492;22;20564;-82
2022/02/18 03:31:10;;;;;;;14.30;2.97;;;;;;;;;;6281661;22;20208;-80
2022/02/18 03:33:40;;;;;;;11.53;2.73;;;;;;;;;;6279498;22;20179;-81
2022/02/18 03:36:06;;;;;;;13.00;3.70;;;;;;;;;;6280378;22;20625;-83
2022/02/18 03:38:33;;;;;;;10.33;2.60;;;;;;;;;;6279802;22;20534;-82
2022/02/18 03:40:59;;;;;;;15.93;4.07;;;;;;;;;;6283394;22;20484;-81
2022/02/18 03:43:25;;;;;;;16.77;3.60;;;;;;;;;;6281902;22;20156;-81
2022/02/18 03:45:51;;;;;;;15.67;3.17;;;;;;;;;;6282283;22;20149;-82
2022/02/18 03:48:17;;;;;;;9.27;2.77;;;;;;;;;;6281089;22;20176;-81
2022/02/18 03:50:43;;;;;;;9.20;1.90;;;;;;;;;;6283809;22;20175;-80
2022/02/18 03:53:10;;;;;;;11.63;2.50;;;;;;;;;;6281660;22;20158;-81
2022/02/18 03:55:36;;;;;;;10.93;2.43;;;;;;;;;;6283503;22;20241;-82
2022/02/18 03:58:02;;;;;;;5.70;1.83;;;;;;;;;;6282643;22;20500;-81
2022/02/18 04:00:28;;;;;;;11.10;2.27;;;;;;;;;;6283406;22;20168;-81
2022/02/18 04:02:54;;;;;;;10.93;2.90;;;;;;;;;;6280988;22;20467;-82
2022/02/18 04:05:20;;;;;;;8.23;2.50;;;;;;;;;;6282319;22;20150;-80
2022/02/18 04:07:46;;;;;;;11.57;2.70;;;;;;;;;;6281570;22;20160;-81
2022/02/18 04:10:12;;;;;;;7.03;2.60;;;;;;;;;;6282223;22;20179;-82
2022/02/18 04:12:38;;;;;;;7.50;2.77;;;;;;;;;;6282005;22;20151;-82
2022/02/18 04:15:05;;;;;;;6.97;2.63;;;;;;;;;;6281515;22;20228;-82
2022/02/18 04:17:32;;;;;;;11.27;2.77;;;;;;;;;;6280368;22;20171;-80
2022/02/18 04:19:58;;;;;;;8.73;2.67;;;;;;;;;;6282068;22;20532;-81
2022/02/18 04:22:24;;;;;;;9.63;2.20;;;;;;;;;;6280895;22;20159;-81
2022/02/18 04:24:51;;;;;;;13.83;2.73;;;;;;;;;;6282031;22;20651;-83
2022/02/18 04:27:17;;;;;;;16.93;3.30;;;;;;;;;;6282113;22;20172;-81
2022/02/18 04:29:44;;;;;;;11.03;2.83;;;;;;;;;;6282434;22;20168;-81
2022/02/18 04:32:10;;;;;;;12.27;3.80;;;;;;;;;;6282440;22;20152;-82
2022/02/18 04:34:36;;;;;;;9.43;2.87;;;;;;;;;;6281977;22;20180;-81
2022/02/18 04:37:02;;;;;;;11.30;2.57;;;;;;;;;;6281754;22;20159;-82
2022/02/18 04:39:28;;;;;;;13.87;2.60;;;;;;;;;;6281673;22;20164;-81
2022/02/18 04:41:54;;;;;;;12.50;3.17;;;;;;;;;;6281254;22;20149;-82
2022/02/18 04:44:20;;;;;;;10.87;2.63;;;;;;;;;;6282419;22;20164;-80
2022/02/18 04:46:46;;;;;;;12.70;2.63;;;;;;;;;;6282406;22;20544;-81
2022/02/18 04:49:12;;;;;;;9.80;2.20;;;;;;;;;;6282324;22;20202;-82
2022/02/18 04:51:38;;;;;;;9.77;2.50;;;;;;;;;;6284268;22;20148;-82
2022/02/18 04:54:05;;;;;;;9.13;2.50;;;;;;;;;;6283999;22;20597;-82
2022/02/18 04:56:31;;;;;;;10.50;2.10;;;;;;;;;;6284090;22;20237;-82
2022/02/18 04:58:57;;;;;;;11.97;2.30;;;;;;;;;;6283447;22;20173;-84
2022/02/18 05:01:23;;;;;;;13.00;2.20;;;;;;;;;;6283028;22;20526;-82
2022/02/18 05:03:50;;;;;;;9.10;1.87;;;;;;;;;;6284098;22;20580;-82
2022/02/18 05:06:16;;;;;;;16.47;2.30;;;;;;;;;;6283843;22;20524;-82
2022/02/18 05:08:45;;;;;;;12.33;2.93;;;;;;;;;;6282892;22;20253;-81
2022/02/18 05:11:12;;;;;;;13.30;2.40;;;;;;;;;;6280421;22;20157;-82
2022/02/18 05:13:41;;;;;;;10.73;3.13;;;;;;;;;;6283539;22;20144;-82
2022/02/18 05:16:10;;;;;;;10.83;2.83;;;;;;;;;;6283162;22;20194;-82
2022/02/18 05:18:39;;;;;;;9.97;2.63;;;;;;;;;;6283105;22;20170;-83
2022/02/18 05:21:08;;;;;;;12.07;2.77;;;;;;;;;;6284263;22;20220;-82
2022/02/18 05:23:52;;;;;;;20.30;3.07;;;;;;;;;;6283501;22;20156;-82
2022/02/18 05:26:25;;;;;;;15.27;3.13;;;;;;;;;;6283833;22;20155;-82
2022/02/18 05:28:57;;;;;;;10.33;2.90;;;;;;;;;;6282182;22;20182;-82
2022/02/18 05:31:32;;;;;;;11.27;3.03;;;;;;;;;;6282680;22;20149;-82
2022/02/18 05:33:58;;;;;;;12.43;3.03;;;;;;;;;;6282393;22;20182;-81
2022/02/18 05:36:27;;;;;;;16.87;3.03;;;;;;;;;;6282544;22;20240;-82
2022/02/18 05:38:59;;;;;;;10.60;2.83;;;;;;;;;;6279400;22;20271;-83
2022/02/18 05:41:31;;;;;;;13.07;3.40;;;;;;;;;;6281704;22;20149;-83
2022/02/18 05:44:00;;;;;;;20.00;3.23;;;;;;;;;;6280789;22;20210;-83
2022/02/18 05:46:26;;;;;;;11.10;2.70;;;;;;;;;;6278965;22;20258;-82
2022/02/18 05:48:52;;;;;;;10.37;2.67;;;;;;;;;;6280452;22;20164;-81
2022/02/18 05:51:21;;;;;;;9.83;2.90;;;;;;;;;;6280724;22;20148;-82
2022/02/18 05:53:47;;;;;;;11.77;3.20;;;;;;;;;;6281186;22;20247;-82
2022/02/18 05:56:13;;;;;;;9.03;2.20;;;;;;;;;;6280996;22;20176;-83
2022/02/18 05:58:41;;;;;;;10.90;3.27;;;;;;;;;;6279462;22;20170;-82
2022/02/18 06:01:08;;;;;;;7.87;2.57;;;;;;;;;;6280798;22;20153;-81
2022/02/18 06:03:36;;;;;;;11.40;3.33;;;;;;;;;;6280997;22;20217;-82
2022/02/18 06:06:36;;;;;;;15.20;3.00;;;;;;;;;;6282048;22;20153;-84
2022/02/18 06:08:58;;;;;;;16.77;4.30;;;;;;;;;;6281759;22;20200;-82
2022/02/18 06:11:24;;;;;;;13.50;3.43;;;;;;;;;;6281688;22;20145;-82
2022/02/18 06:13:50;;;;;;;9.80;2.60;;;;;;;;;;6278761;22;20315;-82
2022/02/18 06:16:16;;;;;;;13.67;3.07;;;;;;;;;;6280531;22;20707;-83
2022/02/18 06:18:42;;;;;;;11.93;3.40;;;;;;;;;;6280780;22;20480;-83
2022/02/18 06:21:14;;;;;;;13.50;3.00;;;;;;;;;;6279709;22;20148;-82
2022/02/18 06:23:42;;;;;;;11.13;2.53;;;;;;;;;;6277904;22;20133;-81
2022/02/18 06:26:08;;;;;;;9.53;2.70;;;;;;;;;;6279005;22;20150;-83
2022/02/18 06:28:40;;;;;;;12.57;3.07;;;;;;;;;;6278600;22;20185;-83
2022/02/18 06:31:18;;;;;;;9.47;2.30;;;;;;;;;;6278004;22;20551;-82
2022/02/18 06:33:45;;;;;;;7.87;2.73;;;;;;;;;;6226293;22;20250;-83
2022/02/18 06:36:14;;;;;;;8.53;3.90;;;;;;;;;;6280476;22;20226;-82
2022/02/18 06:38:42;;;;;;;11.17;3.20;;;;;;;;;;6280168;22;20181;-82
2022/02/18 06:41:15;;;;;;;11.10;3.20;;;;;;;;;;6278242;22;20160;-82
2022/02/18 06:43:44;;;;;;;7.60;2.87;;;;;;;;;;6279528;22;20210;-83
2022/02/18 06:46:10;;;;;;;11.87;3.43;;;;;;;;;;6278499;22;20150;-79
2022/02/18 06:48:39;;;;;;;11.70;3.20;;;;;;;;;;6281106;22;20172;-80
2022/02/18 06:51:05;;;;;;;13.00;2.97;;;;;;;;;;6281102;22;20210;-80
2022/02/18 06:53:35;;;;;;;14.73;3.50;;;;;;;;;;6280797;22;20208;-83
2022/02/18 06:56:01;;;;;;;16.27;3.80;;;;;;;;;;6281973;22;20172;-82
2022/02/18 06:58:34;;;;;;;12.57;2.73;;;;;;;;;;6281304;22;20162;-82
2022/02/18 07:01:02;;;;;;;15.87;3.80;;;;;;;;;;6280169;22;20156;-83
2022/02/18 07:03:28;;;;;;;13.63;3.73;;;;;;;;;;6282724;22;20149;-83
2022/02/18 07:06:03;;;;;;;9.20;2.87;;;;;;;;;;6278832;22;20163;-82
2022/02/18 07:08:32;;;;;;;10.23;3.00;;;;;;;;;;6279172;22;20503;-83
2022/02/18 07:10:58;;;;;;;12.87;2.83;;;;;;;;;;6281270;22;20478;-83
2022/02/18 07:13:33;;;;;;;11.40;2.70;;;;;;;;;;6280095;22;20152;-82
2022/02/18 07:16:00;;;;;;;9.10;3.43;;;;;;;;;;6280827;22;20641;-83
2022/02/18 07:18:29;;;;;;;15.13;3.40;;;;;;;;;;6279398;22;20165;-81
2022/02/18 07:20:58;;;;;;;13.37;2.77;;;;;;;;;;6280707;22;20140;-84
2022/02/18 07:23:27;;;;;;;11.10;2.83;;;;;;;;;;6279617;22;20166;-82
2022/02/18 07:25:56;;;;;;;12.97;3.13;;;;;;;;;;6281515;22;20533;-82
2022/02/18 07:28:22;;;;;;;14.50;3.57;;;;;;;;;;6280627;22;20172;-82
2022/02/18 07:30:48;;;;;;;10.83;3.13;;;;;;;;;;6281095;22;20160;-82
2022/02/18 07:33:17;;;;;;;12.30;2.73;;;;;;;;;;6280685;22;20168;-83
2022/02/18 07:35:45;;;;;;;11.70;2.80;;;;;;;;;;6281003;22;20169;-83
2022/02/18 07:38:19;;;;;;;10.27;2.80;;;;;;;;;;6277520;22;20176;-82
2022/02/18 07:40:51;;;;;;;12.03;3.03;;;;;;;;;;6277201;22;20148;-83
2022/02/18 07:43:19;;;;;;;8.37;2.93;;;;;;;;;;6279774;22;20159;-83
2022/02/18 07:45:48;;;;;;;11.43;3.80;;;;;;;;;;6280044;22;20171;-83
2022/02/18 07:48:16;;;;;;;11.27;3.80;;;;;;;;;;6280840;22;20184;-83
2022/02/18 07:50:42;;;;;;;9.57;3.93;;;;;;;;;;6280852;22;20148;-83
2022/02/18 07:53:08;;;;;;;11.23;3.53;;;;;;;;;;6281130;22;20149;-83
2022/02/18 07:55:34;;;;;;;13.73;3.77;;;;;;;;;;6280072;22;20252;-83
2022/02/18 07:58:05;;;;;;;13.87;3.63;;;;;;;;;;6277963;22;20179;-83
2022/02/18 08:00:32;;;;;;;9.00;3.23;;;;;;;;;;6279874;22;20160;-83
2022/02/18 08:03:17;;;;;;;;;;;;;;;;;;;;;
2022/02/18 08:05:46;;;;;;;11.80;3.13;;;;;;;;;;6280581;22;20209;-83
2022/02/18 08:08:15;;;;;;;16.43;4.00;;;;;;;;;;6279800;22;20634;-83
2022/02/18 08:10:41;;;;;;;14.43;3.37;;;;;;;;;;6280664;22;20237;-83
2022/02/18 08:13:13;;;;;;;8.17;3.00;;;;;;;;;;6279981;22;20176;-83
2022/02/18 08:15:39;;;;;;;7.73;2.90;;;;;;;;;;6280329;22;20160;-83
2022/02/18 08:18:08;;;;;;;7.30;2.63;;;;;;;;;;6280082;22;20641;-83
2022/02/18 08:20:37;;;;;;;8.00;2.83;;;;;;;;;;6280286;22;20186;-83
2022/02/18 08:23:20;;;;;;;10.33;3.67;;;;;;;;;;6280737;22;20149;-83
2022/02/18 08:25:59;;;;;;;11.37;3.63;;;;;;;;;;6281499;22;20150;-83
2022/02/18 08:28:26;;;;;;;11.30;3.77;;;;;;;;;;6278535;22;20169;-84
2022/02/18 08:30:52;;;;;;;7.77;3.53;;;;;;;;;;6272134;22;20213;-83
2022/02/18 08:33:30;;;;;;;9.43;1.97;;;;;;;;;;6278736;22;20256;-83
2022/02/18 08:35:59;;;;;;;9.50;2.43;;;;;;;;;;6280349;22;20223;-83
2022/02/18 08:38:28;;;;;;;9.00;2.33;;;;;;;;;;6278910;22;20486;-83
2022/02/18 08:40:57;;;;;;;4.63;1.93;;;;;;;;;;6280218;22;20481;-82
2022/02/18 08:43:23;;;;;;;4.80;2.13;;;;;;;;;;6277527;22;20176;-80
2022/02/18 08:45:49;;;;;;;5.43;2.10;;;;;;;;;;6279573;22;20703;-83
2022/02/18 08:48:20;;;;;;;3.73;1.77;;;;;;;;;;6279448;22;20198;-83
2022/02/18 08:50:46;;;;;;;6.47;1.87;;;;;;;;;;6278810;22;20158;-84
2022/02/18 08:53:12;;;;;;;4.30;1.50;;;;;;;;;;6279150;22;20154;-83
2022/02/18 08:55:38;;;;;;;3.67;1.77;;;;;;;;;;6277378;22;20643;-83
2022/02/18 08:58:06;;;;;;;3.13;1.33;;;;;;;;;;6278953;22;20195;-83
2022/02/18 09:00:35;;;;;;;6.93;1.80;;;;;;;;;;6279814;22;20178;-83
2022/02/18 09:03:01;;;;;;;3.27;1.23;;;;;;;;;;6277603;22;20185;-84
2022/02/18 09:05:35;;;;;;;4.73;1.17;;;;;;;;;;6279256;22;20484;-85
2022/02/18 09:08:03;;;;;;;5.53;1.40;;;;;;;;;;6279374;22;20161;-83
2022/02/18 09:10:34;;;;;;;2.90;1.13;;;;;;;;;;6280621;22;20149;-83
2022/02/18 09:13:06;;;;;;;4.80;1.30;;;;;;;;;;6280938;22;20137;-84
2022/02/18 09:15:35;;;;;;;4.10;1.37;;;;;;;;;;6279119;22;20201;-83
2022/02/18 09:18:04;;;;;;;3.00;0.97;;;;;;;;;;6280600;22;20180;-82
2022/02/18 09:20:30;;;;;;;3.73;1.17;;;;;;;;;;6282821;22;20156;-83
2022/02/18 09:23:08;;;;;;;4.77;1.20;;;;;;;;;;6280397;22;20223;-83
2022/02/18 09:25:34;;;;;;;6.07;1.50;;;;;;;;;;6280736;22;20230;-83
2022/02/18 09:28:01;;;;;;;3.57;1.33;;;;;;;;;;6283132;22;20613;-85
2022/02/18 09:30:32;;;;;;;2.40;1.00;;;;;;;;;;6283423;22;20158;-84
2022/02/18 09:33:03;;;;;;;3.13;1.20;;;;;;;;;;6280987;22;20134;-84
2022/02/18 09:35:29;;;;;;;3.73;1.20;;;;;;;;;;6280743;22;20614;-84
2022/02/18 09:37:56;;;;;;;2.67;1.10;;;;;;;;;;6286066;22;20175;-84
2022/02/18 09:40:27;;;;;;;2.20;0.70;;;;;;;;;;6280669;22;20154;-83
2022/02/18 09:42:54;;;;;;;3.17;0.80;;;;;;;;;;6280472;22;20142;-83
2022/02/18 09:45:21;;;;;;;6.53;1.20;;;;;;;;;;6279863;22;20220;-83
2022/02/18 09:47:50;;;;;;;4.30;1.10;;;;;;;;;;6282125;22;20156;-83
2022/02/18 09:50:16;;;;;;;3.53;0.90;;;;;;;;;;6282192;22;20149;-83
2022/02/18 09:52:44;;;;;;;4.03;1.30;;;;;;;;;;6279687;22;20145;-83
2022/02/18 09:55:11;;;;;;;2.60;1.03;;;;;;;;;;6280032;22;20519;-84
2022/02/18 09:57:40;;;;;;;4.23;1.40;;;;;;;;;;6281803;22;20142;-82
2022/02/18 10:00:13;;;;;;;4.83;1.33;;;;;;;;;;6281436;22;20559;-83
2022/02/18 10:02:40;;;;;;;2.33;0.90;;;;;;;;;;6282866;22;20159;-83
2022/02/18 10:05:13;;;;;;;4.37;1.43;;;;;;;;;;6282240;22;20212;-83
2022/02/18 10:07:57;;;;;;;4.90;1.43;;;;;;;;;;6282383;22;20141;-84
2022/02/18 10:10:32;;;;;;;4.70;1.20;;;;;;;;;;6280054;22;20236;-84
2022/02/18 10:12:58;;;;;;;2.77;0.80;;;;;;;;;;6280241;22;20228;-84
2022/02/18 10:15:24;;;;;;;3.27;1.10;;;;;;;;;;6281516;22;20298;-84
2022/02/18 10:17:50;;;;;;;4.50;1.37;;;;;;;;;;6282008;22;20658;-84
2022/02/18 10:20:21;;;;;;;4.83;1.17;;;;;;;;;;6281776;22;20148;-84
2022/02/18 10:23:21;;;;;;;10.17;1.80;;;;;;;;;;6280288;22;20156;-84
2022/02/18 10:25:52;;;;;;;3.23;0.90;;;;;;;;;;6265037;22;20524;-83
2022/02/18 10:28:21;;;;;;;3.53;0.80;;;;;;;;;;6282369;22;20225;-83
2022/02/18 10:30:50;;;;;;;1.67;0.70;;;;;;;;;;6281080;22;20156;-83
2022/02/18 10:33:23;;;;;;;2.03;0.80;;;;;;;;;;6280898;22;20167;-84
2022/02/18 10:36:00;;;;;;;6.07;3.47;;;;;;;;;;6279303;22;20175;-84
2022/02/18 10:38:41;;;;;;;6.20;1.20;;;;;;;;;;6281890;22;20167;-86
2022/02/18 10:41:29;;;;;;;2.27;0.90;;;;;;;;;;6282303;22;20147;-84
2022/02/18 10:44:01;;;;;;;3.60;1.30;;;;;;;;;;6281454;22;20152;-84
2022/02/18 10:46:55;;;;;;;3.57;1.70;;;;;;;;;;6278353;22;20154;-85
2022/02/18 10:49:32;;;;;;;3.53;1.47;;;;;;;;;;6277197;22;20667;-84
2022/02/18 10:52:03;;;;;;;3.10;1.60;;;;;;;;;;6279202;22;20191;-85
2022/02/18 10:54:35;;;;;;;3.10;1.23;;;;;;;;;;6279061;22;20449;-85
2022/02/18 10:57:26;;;;;;;2.63;0.90;;;;;;;;;;6277184;22;20156;-85
2022/02/18 10:59:55;;;;;;;3.67;1.03;;;;;;;;;;6279163;22;20172;-85
2022/02/18 11:02:40;;;;;;;3.53;1.20;;;;;;;;;;6282767;22;20171;-85
2022/02/18 11:05:22;;;;;;;1.67;1.07;;;;;;;;;;6283668;22;20154;-83
2022/02/18 11:07:48;;;;;;;4.30;1.10;;;;;;;;;;6283676;22;20212;-84
2022/02/18 11:10:30;;;;;;;5.57;1.30;;;;;;;;;;6282702;22;20170;-85
2022/02/18 11:12:56;;;;;;;3.23;1.20;;;;;;;;;;6283704;22;20489;-84
2022/02/18 11:15:23;;;;;;;5.83;1.53;;;;;;;;;;6282616;22;20559;-84
2022/02/18 11:17:50;;;;;;;2.17;0.90;;;;;;;;;;6283657;22;20226;-83
2022/02/18 11:20:16;;;;;;;3.60;1.20;;;;;;;;;;6282004;22;20491;-83
2022/02/18 11:22:44;;;;;;;3.10;1.40;;;;;;;;;;6283249;22;20156;-83
2022/02/18 11:25:11;;;;;;;4.10;1.73;;;;;;;;;;6283117;22;20147;-83
2022/02/18 11:27:37;;;;;;;2.73;1.20;;;;;;;;;;6281843;22;20227;-83
2022/02/18 11:30:04;;;;;;;5.27;1.30;;;;;;;;;;6280914;22;20163;-84
2022/02/18 11:32:34;;;;;;;2.77;1.23;;;;;;;;;;6283449;22;20151;-84
2022/02/18 11:35:21;;;;;;;2.97;0.97;;;;;;;;;;6281345;22;20199;-83
2022/02/18 11:38:13;;;;;;;2.50;1.03;;;;;;;;;;6283860;22;20191;-84
2022/02/18 11:40:40;;;;;;;4.57;1.30;;;;;;;;;;6283140;22;20139;-84
2022/02/18 11:43:27;;;;;;;3.17;1.30;;;;;;;;;;6283654;22;20630;-84
2022/02/18 11:45:57;;;;;;;2.30;1.10;;;;;;;;;;6281521;22;20167;-81
2022/02/18 11:48:42;;;;;;;3.30;1.83;;;;;;;;;;6279905;22;20179;-83
2022/02/18 11:51:09;;;;;;;3.73;1.57;;;;;;;;;;6283534;22;20207;-84
2022/02/18 11:53:39;;;;;;;2.87;0.80;;;;;;;;;;6281131;22;20161;-83
2022/02/18 11:56:05;;;;;;;2.70;1.27;;;;;;;;;;6283035;22;20180;-86
2022/02/18 11:58:47;;;;;;;2.47;1.13;;;;;;;;;;6282998;22;20231;-83
2022/02/18 12:01:14;;;;;;;3.97;1.63;;;;;;;;;;6284191;22;20137;-85
2022/02/18 12:03:40;;;;;;;2.60;0.90;;;;;;;;;;6283722;22;20148;-83
2022/02/18 12:06:10;;;;;;;2.70;1.13;;;;;;;;;;6284163;22;20152;-83
2022/02/18 12:08:36;;;;;;;4.27;0.97;;;;;;;;;;6285112;22;20625;-84
2022/02/18 12:11:09;;;;;;;3.93;1.13;;;;;;;;;;6282977;22;20572;-84
2022/02/18 12:13:56;;;;;;;2.13;1.00;;;;;;;;;;6278383;22;20292;-82
2022/02/18 12:16:23;;;;;;;3.13;1.30;;;;;;;;;;6282086;22;20668;-84
2022/02/18 12:19:13;;;;;;;2.63;1.37;;;;;;;;;;6282942;22;20168;-84
2022/02/18 12:21:58;;;;;;;3.33;1.10;;;;;;;;;;6285658;22;20151;-85
2022/02/18 12:24:39;;;;;;;3.60;1.53;;;;;;;;;;6285448;22;20613;-84
2022/02/18 12:27:20;;;;;;;3.13;1.40;;;;;;;;;;6282082;22;20170;-83
2022/02/18 12:29:47;;;;;;;2.77;1.67;;;;;;;;;;6282836;22;20205;-85
2022/02/18 12:32:14;;;;;;;4.93;1.80;;;;;;;;;;6284240;22;20609;-84
2022/02/18 12:34:41;;;;;;;3.13;1.57;;;;;;;;;;6282305;22;20184;-84
2022/02/18 12:37:07;;;;;;;3.70;1.47;;;;;;;;;;6283318;22;20156;-84
2022/02/18 12:39:34;;;;;;;3.37;1.37;;;;;;;;;;6282249;22;20172;-84
2022/02/18 12:42:05;;;;;;;3.43;1.10;;;;;;;;;;6284184;22;20648;-84
2022/02/18 12:44:32;;;;;;;4.37;1.30;;;;;;;;;;6284537;22;20154;-85
2022/02/18 12:46:58;;;;;;;3.30;1.57;;;;;;;;;;6283442;22;20156;-84
2022/02/18 12:49:38;;;;;;;3.77;1.30;;;;;;;;;;6282137;22;20208;-84
2022/02/18 12:52:05;;;;;;;3.73;1.27;;;;;;;;;;6284518;22;20236;-85
2022/02/18 12:54:48;;;;;;;4.67;1.23;;;;;;;;;;6281256;22;20153;-85
2022/02/18 12:57:14;;;;;;;3.90;1.40;;;;;;;;;;6283320;22;20182;-84
2022/02/18 12:59:44;;;;;;;2.00;1.20;;;;;;;;;;6282694;22;20164;-83
2022/02/18 13:02:10;;;;;;;3.77;1.23;;;;;;;;;;6281292;22;20152;-83
2022/02/18 13:04:37;;;;;;;4.17;1.73;;;;;;;;;;6283481;22;20480;-83
2022/02/18 13:07:04;;;;;;;2.63;1.20;;;;;;;;;;6284072;22;20216;-83
2022/02/18 13:09:32;;;;;;;1.83;1.10;;;;;;;;;;6282037;22;20174;-84
2022/02/18 13:11:59;;;;;;;4.00;1.60;;;;;;;;;;6284361;22;20182;-82
2022/02/18 13:14:25;;;;;;;3.07;1.33;;;;;;;;;;6285895;22;20157;-84
2022/02/18 13:16:51;;;;;;;3.37;1.33;;;;;;;;;;6286127;22;20177;-84
2022/02/18 13:19:17;;;;;;;3.23;1.43;;;;;;;;;;6285768;22;20505;-85
2022/02/18 13:21:43;;;;;;;3.27;1.40;;;;;;;;;;6285986;22;20151;-84
2022/02/18 13:24:09;;;;;;;2.57;1.37;;;;;;;;;;6285948;22;20198;-85
2022/02/18 13:26:35;;;;;;;2.40;1.20;;;;;;;;;;6283726;22;20158;-85
2022/02/18 13:29:01;;;;;;;2.30;1.37;;;;;;;;;;6281502;22;20659;-85
2022/02/18 13:31:27;;;;;;;2.30;1.00;;;;;;;;;;6283548;22;20148;-86
2022/02/18 13:33:54;;;;;;;4.73;1.37;;;;;;;;;;6284228;22;20171;-85
2022/02/18 13:36:25;;;;;;;3.60;0.90;;;;;;;;;;6282930;22;20633;-84
2022/02/18 13:38:55;;;;;;;2.73;1.10;;;;;;;;;;6281625;22;20172;-84
2022/02/18 13:41:25;;;;;;;2.37;1.00;;;;;;;;;;6283231;22;20145;-83
2022/02/18 13:43:52;;;;;;;1.83;0.87;;;;;;;;;;6283335;22;20460;-84
2022/02/18 13:46:27;;;;;;;2.40;0.83;;;;;;;;;;6281897;22;20156;-85
2022/02/18 13:48:53;;;;;;;3.13;1.40;;;;;;;;;;6283416;22;20670;-87
2022/02/18 13:51:20;;;;;;;3.80;1.47;;;;;;;;;;6283688;22;20174;-86
2022/02/18 13:53:46;;;;;;;2.87;1.00;;;;;;;;;;6284996;22;20164;-85
2022/02/18 13:56:22;;;;;;;2.63;1.00;;;;;;;;;;6282151;22;20189;-85
2022/02/18 13:58:48;;;;;;;3.97;1.40;;;;;;;;;;6283696;22;20168;-84
2022/02/18 14:01:14;;;;;;;3.53;1.40;;;;;;;;;;6283377;22;20206;-84
2022/02/18 14:03:57;;;;;;;3.70;1.33;;;;;;;;;;6278775;22;20153;-84
2022/02/18 14:06:30;;;;;;;4.33;1.67;;;;;;;;;;6282172;22;20233;-84
2022/02/18 14:08:56;;;;;;;3.93;1.43;;;;;;;;;;6276568;22;20219;-83
2022/02/18 14:11:25;;;;;;;2.93;1.23;;;;;;;;;;6280289;22;20601;-83
2022/02/18 14:13:52;;;;;;;3.77;1.33;;;;;;;;;;6278902;22;20144;-84
2022/02/18 14:16:28;;;;;;;4.20;1.60;;;;;;;;;;6280526;22;20551;-84
2022/02/18 14:19:01;;;;;;;4.63;1.17;;;;;;;;;;6281440;22;20497;-84
2022/02/18 14:21:36;;;;;;;10.27;2.13;;;;;;;;;;6282979;22;20219;-84
2022/02/18 14:24:07;;;;;;;5.50;2.60;;;;;;;;;;6282450;22;20207;-83
2022/02/18 14:26:34;;;;;;;5.47;2.00;;;;;;;;;;6280895;22;20171;-84
2022/02/18 14:29:05;;;;;;;2.77;1.40;;;;;;;;;;6280578;22;20168;-84
2022/02/18 14:31:32;;;;;;;4.67;1.47;;;;;;;;;;6279491;22;20533;-84
2022/02/18 14:33:58;;;;;;;6.20;1.60;;;;;;;;;;6281179;22;20681;-81
2022/02/18 14:36:33;;;;;;;5.53;1.43;;;;;;;;;;6281693;22;20179;-84
2022/02/18 14:39:04;;;;;;;10.00;3.77;;;;;;;;;;6281577;22;20176;-84
2022/02/18 14:41:30;;;;;;;7.63;2.37;;;;;;;;;;6279193;22;20239;-84
2022/02/18 14:43:58;;;;;;;5.90;3.23;;;;;;;;;;6280669;22;20145;-85
2022/02/18 14:46:28;;;;;;;7.47;2.70;;;;;;;;;;6281402;22;20227;-85
2022/02/18 14:49:31;;;;;;;5.13;1.73;;;;;;;;;;6282313;22;20506;-85